Terminal Aerodrome Forecast
Issued by NWS Billings, MT

Home | Current Version | Previous Version | Text Only | Print | Product List | Glossary On
Versions: 1 2 3 4 5 6 7 8 9 10 11 12 13 14 15 16 17 18 19 20 21 22 23
000
FTUS45 KBYZ 281730
TAFBIL
TAF
KBIL 281730Z 2818/2918 27008KT P6SM SCT060 SCT250
     FM282100 30010KT P6SM VCSH BKN050 BKN150
     FM290200 VRB05KT P6SM FEW050 SCT150=

USA.gov is the U.S. government's official web portal to all federal, state and local government web resources and services.